createdAt,value
2023-08-19T00:01:55.415Z,18.50
2023-08-19T00:04:24.889Z,20.80
2023-08-19T00:06:53.804Z,20.90
2023-08-19T00:09:22.700Z,21.10
2023-08-19T00:11:49.688Z,20.90
2023-08-19T00:14:17.909Z,20.80
2023-08-19T00:16:45.258Z,20.70
2023-08-19T00:19:12.773Z,22.30
2023-08-19T00:21:43.403Z,20.60
2023-08-19T00:24:10.434Z,20.60
2023-08-19T00:26:46.773Z,20.70
2023-08-19T00:29:14.510Z,20.70
2023-08-19T00:31:46.895Z,19.50
2023-08-19T00:34:14.009Z,20.70
2023-08-19T00:36:42.925Z,21.10
2023-08-19T00:39:14.602Z,20.90
2023-08-19T00:41:41.612Z,20.90
2023-08-19T00:44:14.180Z,20.90
2023-08-19T00:46:42.340Z,20.10
2023-08-19T00:49:09.398Z,20.80
2023-08-19T00:51:36.449Z,20.90
2023-08-19T00:54:04.036Z,20.80
2023-08-19T00:56:31.185Z,20.80
2023-08-19T00:59:00.779Z,20.90
2023-08-19T01:01:27.765Z,20.80
2023-08-19T01:03:55.066Z,20.80
2023-08-19T01:06:55.800Z,20.80
2023-08-19T01:09:37.898Z,20.90
2023-08-19T01:12:19.916Z,20.90
2023-08-19T01:15:00.955Z,20.80
2023-08-19T01:17:31.237Z,20.70
2023-08-19T01:20:04.273Z,19.50
2023-08-19T01:22:43.551Z,20.00
2023-08-19T01:25:11.780Z,20.90
2023-08-19T01:27:38.748Z,20.60
2023-08-19T01:30:06.238Z,20.60
2023-08-19T01:32:39.631Z,20.50
2023-08-19T01:35:07.486Z,20.60
2023-08-19T01:37:55.263Z,20.50
2023-08-19T01:40:26.151Z,20.50
2023-08-19T01:42:54.564Z,20.70
2023-08-19T01:45:22.295Z,19.30
2023-08-19T01:47:56.613Z,20.50
2023-08-19T01:50:26.523Z,20.40
2023-08-19T01:52:53.655Z,18.90
2023-08-19T01:55:20.661Z,20.60
2023-08-19T01:57:47.651Z,20.40
2023-08-19T02:00:15.126Z,20.40
2023-08-19T02:02:42.359Z,20.40
2023-08-19T02:05:16.260Z,18.30
2023-08-19T02:07:44.050Z,20.30
2023-08-19T02:10:12.922Z,20.40
2023-08-19T02:12:43.035Z,20.40
2023-08-19T02:15:10.235Z,18.30
2023-08-19T02:17:40.017Z,20.30
2023-08-19T02:20:07.510Z,20.50
2023-08-19T02:22:34.490Z,20.40
2023-08-19T02:25:04.433Z,20.50
2023-08-19T02:27:36.090Z,20.60
2023-08-19T02:30:03.131Z,20.50
2023-08-19T02:32:30.236Z,20.40
2023-08-19T02:35:01.633Z,20.70
2023-08-19T02:37:28.708Z,20.50
2023-08-19T02:40:01.639Z,20.60
2023-08-19T02:42:30.995Z,20.50
2023-08-19T02:44:59.220Z,20.80
2023-08-19T02:47:26.282Z,20.40
2023-08-19T02:49:53.340Z,20.50
2023-08-19T02:52:20.289Z,18.40
2023-08-19T02:54:47.758Z,20.40
2023-08-19T02:57:19.832Z,20.50
2023-08-19T02:59:46.773Z,20.60
2023-08-19T03:02:16.407Z,20.50
2023-08-19T03:04:46.420Z,20.40
2023-08-19T03:07:23.720Z,20.60
2023-08-19T03:09:50.599Z,20.30
2023-08-19T03:12:20.182Z,22.10
2023-08-19T03:14:47.234Z,20.30
2023-08-19T03:17:14.153Z,22.00
2023-08-19T03:19:41.298Z,20.70
2023-08-19T03:22:08.286Z,20.30
2023-08-19T03:24:35.377Z,20.30
2023-08-19T03:27:02.407Z,20.40
2023-08-19T03:29:29.319Z,20.20
2023-08-19T03:31:58.209Z,20.40
2023-08-19T03:34:26.635Z,20.30
2023-08-19T03:36:53.835Z,20.20
2023-08-19T03:39:21.060Z,20.20
2023-08-19T03:41:48.074Z,20.20
2023-08-19T03:44:15.249Z,20.20
2023-08-19T03:46:45.531Z,20.30
2023-08-19T03:49:12.561Z,20.20
2023-08-19T03:51:42.698Z,20.20
2023-08-19T03:54:17.023Z,18.60
2023-08-19T03:56:45.211Z,20.60
2023-08-19T03:59:12.255Z,18.70
2023-08-19T04:01:42.237Z,20.30
2023-08-19T04:04:10.388Z,20.40
2023-08-19T04:06:37.462Z,17.40
2023-08-19T04:09:13.618Z,20.50
2023-08-19T04:11:40.738Z,21.60
2023-08-19T04:14:10.546Z,20.50
2023-08-19T04:16:40.696Z,20.50
2023-08-19T04:19:10.537Z,20.50
2023-08-19T04:21:37.459Z,20.70
2023-08-19T04:24:07.155Z,20.60
2023-08-19T04:26:34.172Z,20.30
2023-08-19T04:29:01.149Z,20.30
2023-08-19T04:31:28.082Z,23.10
2023-08-19T04:33:55.133Z,20.30
2023-08-19T04:36:24.967Z,20.40
2023-08-19T04:38:52.015Z,20.70
2023-08-19T04:41:18.921Z,21.60
2023-08-19T04:43:47.504Z,20.40
2023-08-19T04:46:14.554Z,20.40
2023-08-19T04:48:43.572Z,20.50
2023-08-19T04:51:10.524Z,20.50
2023-08-19T04:53:37.624Z,20.50
2023-08-19T04:56:05.540Z,20.40
2023-08-19T04:58:35.696Z,20.50
2023-08-19T05:01:03.942Z,20.60
2023-08-19T05:03:30.938Z,20.50
2023-08-19T05:05:58.935Z,20.60
2023-08-19T05:08:29.073Z,19.30
2023-08-19T05:10:56.031Z,21.20
2023-08-19T05:13:29.147Z,20.50
2023-08-19T05:16:06.018Z,20.60
2023-08-19T05:18:41.777Z,20.80
2023-08-19T05:21:08.923Z,20.60
2023-08-19T05:23:38.974Z,20.80
2023-08-19T05:26:09.268Z,20.60
2023-08-19T05:28:41.699Z,20.90
2023-08-19T05:31:08.923Z,20.60
2023-08-19T05:33:36.320Z,20.60
2023-08-19T05:36:04.224Z,20.60
2023-08-19T05:38:43.180Z,20.60
2023-08-19T05:41:10.152Z,18.90
2023-08-19T05:43:37.169Z,18.10
2023-08-19T05:46:08.416Z,20.80
2023-08-19T05:48:36.932Z,20.90
2023-08-19T05:51:04.748Z,20.80
2023-08-19T05:53:31.772Z,20.80
2023-08-19T05:55:58.789Z,20.80
2023-08-19T05:58:25.758Z,20.90
2023-08-19T06:01:04.296Z,18.70
2023-08-19T06:03:31.560Z,21.00
2023-08-19T06:05:58.538Z,21.10
2023-08-19T06:08:25.558Z,21.10
2023-08-19T06:11:07.697Z,21.10
2023-08-19T06:13:39.010Z,21.10
2023-08-19T06:16:06.383Z,21.10
2023-08-19T06:18:35.828Z,21.10
2023-08-19T06:21:04.614Z,21.10
2023-08-19T06:23:31.941Z,21.20
2023-08-19T06:25:59.009Z,21.20
2023-08-19T06:28:26.258Z,21.20
2023-08-19T06:30:53.861Z,21.20
2023-08-19T06:33:21.116Z,21.30
2023-08-19T06:35:49.732Z,21.30
2023-08-19T06:38:29.697Z,21.40
2023-08-19T06:41:06.311Z,21.40
2023-08-19T06:43:34.308Z,21.40
2023-08-19T06:46:03.153Z,21.50
2023-08-19T06:48:31.561Z,21.50
2023-08-19T06:50:59.175Z,21.50
2023-08-19T06:53:26.351Z,21.50
2023-08-19T06:56:11.793Z,21.60
2023-08-19T06:58:43.662Z,21.60
2023-08-19T07:01:22.591Z,21.60
2023-08-19T07:03:55.283Z,21.70
2023-08-19T07:06:23.204Z,21.70
2023-08-19T07:08:51.606Z,21.70
2023-08-19T07:11:19.716Z,21.80
2023-08-19T07:13:47.136Z,21.90
2023-08-19T07:16:17.617Z,21.90
2023-08-19T07:18:48.507Z,21.90
2023-08-19T07:21:16.585Z,22.00
2023-08-19T07:23:49.525Z,22.00
2023-08-19T07:26:23.137Z,22.00
2023-08-19T07:29:02.468Z,22.20
2023-08-19T07:31:29.720Z,20.10
2023-08-19T07:34:07.235Z,22.10
2023-08-19T07:36:34.802Z,22.30
2023-08-19T07:39:01.957Z,22.30
2023-08-19T07:41:31.876Z,22.40
2023-08-19T07:44:08.907Z,22.90
2023-08-19T07:46:37.128Z,22.60
2023-08-19T07:49:07.280Z,22.80
2023-08-19T07:51:34.311Z,23.30
2023-08-19T07:54:01.257Z,21.60
2023-08-19T07:56:28.427Z,23.00
2023-08-19T07:58:55.802Z,22.30
2023-08-19T08:01:23.079Z,23.30
2023-08-19T08:03:55.477Z,23.10
2023-08-19T08:06:25.074Z,20.50
2023-08-19T08:08:52.012Z,23.70
2023-08-19T08:11:19.070Z,23.40
2023-08-19T08:13:46.204Z,23.50
2023-08-19T08:16:16.188Z,23.50
2023-08-19T08:18:43.130Z,25.90
2023-08-19T08:21:11.597Z,23.50
2023-08-19T08:23:38.756Z,23.90
2023-08-19T08:26:06.404Z,22.00
2023-08-19T08:28:33.453Z,24.00
2023-08-19T08:31:06.860Z,23.90
2023-08-19T08:33:35.194Z,24.00
2023-08-19T08:36:02.277Z,24.30
2023-08-19T08:38:30.618Z,23.00
2023-08-19T08:41:04.332Z,24.40
2023-08-19T08:43:35.599Z,24.50
2023-08-19T08:46:02.765Z,24.70
2023-08-19T08:48:36.492Z,24.90
2023-08-19T08:51:06.185Z,23.90
2023-08-19T08:53:34.320Z,24.40
2023-08-19T08:56:06.962Z,25.50
2023-08-19T08:58:40.360Z,25.60
2023-08-19T09:01:08.609Z,26.50
2023-08-19T09:03:38.690Z,25.80
2023-08-19T09:06:15.280Z,25.90
2023-08-19T09:09:04.213Z,26.00
2023-08-19T09:11:46.051Z,26.00
2023-08-19T09:14:44.250Z,26.20
2023-08-19T09:17:18.314Z,24.90
2023-08-19T09:19:47.825Z,25.10
2023-08-19T09:22:17.909Z,26.50
2023-08-19T09:24:46.019Z,26.60
2023-08-19T09:27:17.581Z,27.00
2023-08-19T09:29:53.752Z,26.80
2023-08-19T09:32:34.991Z,27.00
2023-08-19T09:35:16.327Z,27.10
2023-08-19T09:37:43.682Z,27.30
2023-08-19T09:40:14.418Z,27.40
2023-08-19T09:42:42.340Z,27.50
2023-08-19T09:45:20.801Z,27.60
2023-08-19T09:47:53.407Z,30.70
2023-08-19T09:50:26.472Z,26.10
2023-08-19T09:52:58.725Z,25.70
2023-08-19T09:55:34.880Z,28.20
2023-08-19T10:00:29.355Z,28.20
2023-08-19T10:03:00.698Z,28.50
2023-08-19T10:08:19.115Z,28.40
2023-08-19T10:10:47.909Z,28.60
2023-08-19T10:13:17.144Z,28.70
2023-08-19T10:15:49.414Z,28.70
2023-08-19T10:18:32.816Z,28.30
2023-08-19T10:21:14.780Z,29.00
2023-08-19T10:23:49.325Z,28.90
2023-08-19T10:26:19.447Z,30.70
2023-08-19T10:29:08.791Z,29.00
2023-08-19T10:31:56.106Z,28.50
2023-08-19T10:34:29.840Z,29.50
2023-08-19T10:37:08.388Z,28.60
2023-08-19T10:39:39.846Z,29.40
2023-08-19T10:42:26.349Z,29.30
2023-08-19T10:44:53.894Z,27.30
2023-08-19T10:47:20.959Z,29.60
2023-08-19T10:50:25.654Z,30.80
2023-08-19T10:53:06.785Z,30.50
2023-08-19T10:55:56.234Z,29.60
2023-08-19T10:58:26.949Z,29.80
2023-08-19T11:00:53.977Z,29.60
2023-08-19T11:03:26.753Z,29.70
2023-08-19T11:05:56.934Z,28.90
2023-08-19T11:08:24.015Z,30.20
2023-08-19T11:16:03.633Z,30.00
2023-08-19T11:23:33.552Z,30.20
2023-08-19T11:28:40.988Z,30.30
2023-08-19T11:41:05.662Z,30.30
2023-08-19T11:43:45.267Z,30.30
2023-08-19T11:51:18.308Z,30.30
2023-08-19T11:53:50.831Z,30.40
2023-08-19T12:01:21.532Z,30.40
2023-08-19T12:03:56.534Z,30.40
2023-08-19T12:16:23.939Z,30.20
2023-08-19T12:18:55.291Z,30.20
2023-08-19T12:21:24.384Z,29.00
2023-08-19T12:26:19.087Z,30.00
2023-08-19T12:28:46.038Z,30.20
2023-08-19T12:31:13.123Z,30.20
2023-08-19T12:33:43.422Z,30.20
2023-08-19T12:36:19.153Z,30.00
2023-08-19T12:38:47.209Z,30.10
2023-08-19T12:41:15.282Z,30.30
2023-08-19T12:43:48.367Z,30.60
2023-08-19T12:46:18.815Z,29.10
2023-08-19T12:48:45.832Z,30.30
2023-08-19T12:51:13.042Z,30.60
2023-08-19T12:53:43.271Z,30.30
2023-08-19T13:19:04.863Z,30.20
2023-08-19T13:29:17.624Z,29.80
2023-08-19T13:41:40.019Z,29.60
2023-08-19T13:44:12.034Z,29.50
2023-08-19T14:01:42.752Z,29.40
2023-08-19T14:06:54.074Z,29.40
2023-08-19T14:18:14.030Z,29.30
2023-08-19T14:20:46.822Z,29.20
2023-08-19T14:28:17.058Z,29.10
2023-08-19T14:35:51.025Z,29.00
2023-08-19T14:38:23.895Z,28.80
2023-08-19T14:45:53.158Z,28.80
2023-08-19T15:03:21.169Z,28.40
2023-08-19T15:05:48.215Z,28.40
2023-08-19T15:10:54.338Z,28.20
2023-08-19T15:13:24.166Z,28.10
2023-08-19T15:20:52.840Z,27.90
2023-08-19T15:25:51.332Z,27.80
2023-08-19T15:38:13.322Z,27.80
2023-08-19T16:10:26.156Z,27.20
2023-08-19T16:32:40.473Z,27.30
2023-08-19T16:47:36.534Z,27.40
2023-08-19T17:00:14.589Z,27.20
2023-08-19T17:12:37.432Z,27.10
2023-08-19T17:20:00.868Z,27.00
2023-08-19T17:22:41.579Z,26.90
2023-08-19T17:30:13.449Z,26.70
2023-08-19T17:35:08.476Z,26.70
2023-08-19T17:42:37.758Z,26.60
2023-08-19T17:45:05.245Z,26.70
2023-08-19T17:50:06.553Z,26.50
2023-08-19T17:57:28.449Z,26.10
2023-08-19T18:02:22.859Z,26.00
2023-08-19T18:04:49.892Z,25.90
2023-08-19T18:12:11.638Z,25.80
2023-08-19T18:14:39.352Z,25.60
2023-08-19T18:19:43.736Z,25.50
2023-08-19T18:27:09.195Z,25.50
2023-08-19T18:29:38.120Z,25.40
2023-08-19T18:32:05.428Z,26.80
2023-08-19T18:34:37.081Z,23.90
2023-08-19T18:37:05.043Z,24.30
2023-08-19T18:44:29.550Z,25.20
2023-08-19T18:49:27.418Z,25.10
2023-08-19T18:51:54.365Z,23.40
2023-08-19T18:59:43.933Z,24.90
2023-08-19T19:07:05.892Z,24.80
2023-08-19T19:12:04.797Z,24.70
2023-08-19T19:14:40.654Z,27.80
2023-08-19T19:17:11.990Z,25.10
2023-08-19T19:27:01.182Z,24.40
2023-08-19T19:29:28.215Z,24.30
2023-08-19T19:31:58.359Z,24.50
2023-08-19T19:34:25.443Z,24.30
2023-08-19T19:44:14.311Z,24.20
2023-08-19T19:49:10.853Z,24.10
2023-08-19T19:51:38.690Z,24.00
2023-08-19T19:54:06.186Z,24.00
2023-08-19T19:56:33.179Z,24.00
2023-08-19T19:59:00.039Z,24.00
2023-08-19T20:01:27.901Z,24.00
2023-08-19T20:03:55.113Z,23.90
2023-08-19T20:06:22.371Z,23.90
2023-08-19T20:08:49.249Z,23.80
2023-08-19T20:11:16.142Z,23.80
2023-08-19T20:13:43.119Z,23.80
2023-08-19T20:16:13.445Z,23.70
2023-08-19T20:18:40.986Z,23.80
2023-08-19T20:28:32.899Z,23.60
2023-08-19T20:31:04.885Z,23.50
2023-08-19T20:36:02.373Z,23.40
2023-08-19T20:38:39.133Z,23.70
2023-08-19T20:41:06.281Z,23.50
2023-08-19T20:43:39.389Z,21.80
2023-08-19T20:46:06.624Z,23.20
2023-08-19T20:48:34.416Z,23.20
2023-08-19T20:51:01.731Z,23.30
2023-08-19T20:58:26.180Z,23.20
2023-08-19T21:05:53.698Z,23.20
2023-08-19T21:13:15.537Z,23.10
2023-08-19T21:15:42.550Z,23.00
2023-08-19T21:18:09.681Z,23.00
2023-08-19T21:20:36.665Z,22.90
2023-08-19T21:23:03.703Z,22.80
2023-08-19T21:25:30.706Z,22.80
2023-08-19T21:27:57.694Z,22.80
2023-08-19T21:30:24.637Z,22.80
2023-08-19T21:32:51.598Z,22.80
2023-08-19T21:35:18.629Z,22.80
2023-08-19T21:37:45.872Z,22.70
2023-08-19T21:40:13.378Z,22.70
2023-08-19T21:42:43.427Z,22.70
2023-08-19T21:45:10.850Z,22.70
2023-08-19T21:47:38.120Z,22.70
2023-08-19T21:50:06.311Z,22.60
2023-08-19T21:52:33.514Z,22.70
2023-08-19T21:57:30.826Z,22.60
2023-08-19T22:02:25.258Z,22.60
2023-08-19T22:04:52.322Z,22.50
2023-08-19T22:07:19.420Z,22.50
2023-08-19T22:19:41.159Z,22.20
2023-08-19T22:22:10.961Z,22.10
2023-08-19T22:34:28.587Z,22.00
2023-08-19T22:41:50.377Z,21.90
2023-08-19T22:49:13.669Z,21.90
2023-08-19T22:51:40.663Z,21.90
2023-08-19T22:54:07.568Z,21.80
2023-08-19T22:56:34.399Z,21.80
2023-08-19T22:59:01.342Z,21.80
2023-08-19T23:08:55.211Z,21.80
2023-08-19T23:16:19.790Z,21.70
2023-08-19T23:18:49.536Z,21.70
2023-08-19T23:21:22.281Z,21.10
2023-08-19T23:23:50.028Z,21.50
2023-08-19T23:26:17.068Z,21.50
2023-08-19T23:28:44.072Z,21.50
2023-08-19T23:31:11.006Z,21.40
2023-08-19T23:33:37.926Z,21.40
2023-08-19T23:36:05.145Z,21.40
2023-08-19T23:38:32.310Z,21.40
2023-08-19T23:40:59.183Z,21.40
2023-08-19T23:43:26.160Z,21.40
2023-08-19T23:45:53.130Z,21.30
2023-08-19T23:48:23.210Z,21.20
2023-08-19T23:51:01.527Z,21.30
2023-08-19T23:53:34.737Z,21.40
2023-08-19T23:56:02.210Z,21.20
2023-08-19T23:58:38.978Z,21.20
